Alexandria, IN

4:07 PM EDT on September 20, 2014 (GMT -0400)
Linwood, IN | Change Station
CLOSE
Current Station
Personal Weather Station
Location: Anderson, IN
Elevation: 895 ft
Nearby Weather Stations

Elev 895 ft 40.19 °N, 85.69 °W | Updated 4 seconds ago

Partly Cloudy
Partly Cloudy
79.7 °F
Feels Like 82 °F
N
14.0
Wind Variable Wind from SSW
Gusts 19.0 mph

Today
High -- | Low -- °F
--% Chance of Precip.
Yesterday
High -- | Low -- °F
Precip. -- in
7:28 AM 7:43 PM
Waning Crescent, 10% visible
Pressure 29.96 in
Visibility 10.0 miles
Clouds Few 4000 ft
Heat Index 82 °F
Dew Point 66 °F
Humidity 62%
Rainfall 0.00 in
Snow Depth Not available.
UV 3.0 out of 12
Pollen 6.40 out of 12
Ozone Good
PM2.5 Moderate
Flu Activity Not available.
METAR KAID 201949Z 22014G20KT 10SM FEW040 26/15 A2996

More Conditions Fewer Conditions

Pressure 29.96 in
Visibility 10.0 miles
Clouds Few 4000 ft
Heat Index 82 °F
Dew Point 66 °F
Humidity 62%
Rainfall 0.00 in
Snow Depth Not available.
UV 3.0 out of 12
Pollen 6.40 out of 12
Ozone Good
PM2.5 Moderate
Flu Activity Not available.
METAR KAID 201949Z 22014G20KT 10SM FEW040 26/15 A2996

More Conditions Fewer Conditions

10-Day Weather Forecast

Almanac

Astronomy

Sep. 20, 2014 Rise Set
Actual Time 7:28 AM EDT 7:43 PM EDT
Civil Twilight 7:01 AM EDT 8:10 PM EDT
Nautical Twilight 6:29 AM EDT 8:42 PM EDT
Astronomical Twilight 5:56 AM EDT 9:14 PM EDT
Moon 4:06 AM EDT 5:46 PM EDT
Length of Visible Light 13h 09m
Length of Day
12h 14m
Tomorrow will be 2m 38s shorter.
Waning Crescent, 10% of the Moon is Illuminated
Today
Waning Crescent
Sep 24
New
Oct 1
First Quarter
Oct 8
Full
Oct 15
Last Quarter

Today's Extremes

State Highs State Lows

Community

WunderPhotos

Upload Photos

1,754,927 photos uploaded!

WunderBlogs® & News

Nearby

Air Quality

  Air Quality AQ Index Pollutant
Yesterday Moderate
PM2.5
Yesterday Good
OZONE
Current Moderate
PM2.5
Current Good
OZONE
Saturday Moderate
PM2.5
Saturday Good
OZONE
Sunday Good
PM2.5
Sunday Good
OZONE
Monday Good
PM2.5
Monday Good
OZONE

Snow Depth

Station Depth Elevation
No new snow has been reported.

Earthquake Activity

City Distance Mag. Time & Date
No recent earthquake activity has been reported nearby.
Minimum magnitude displayed is 2.5.

Coastal Water Temperatures

Place Temperature
No Stations Reporting

Nearby Weather Stations